Time;durP1;ratioP1;P1;durP2;ratioP2;P2;SDS_P1;SDS_P2;PMS_P1;PMS_P2;Temp;Humidity;BMP_temperature;BMP_pressure;BME280_temperature;BME280_humidity;BME280_pressure;Samples;Min_cycle;Max_cycle;Signal;HPM_P1;HPM_P2
2021/12/18 00:01:50;;;;;;;2.63;2.45;;;;;;;7.34;78.37;103396.63;5101610;29;20085;-78
2021/12/18 00:04:20;;;;;;;3.03;2.78;;;;;;;7.34;78.49;103400.13;5136975;28;20046;-78
2021/12/18 00:06:52;;;;;;;3.28;3.08;;;;;;;7.37;78.10;103396.72;5134255;28;20401;-78
2021/12/18 00:09:25;;;;;;;3.15;2.85;;;;;;;7.35;78.29;103398.41;5127990;28;20059;-78
2021/12/18 00:11:56;;;;;;;3.72;3.42;;;;;;;7.37;78.48;103396.72;5120406;29;20048;-78
2021/12/18 00:14:27;;;;;;;2.90;2.70;;;;;;;7.38;78.54;103398.50;5126387;28;20027;-78
2021/12/18 00:16:57;;;;;;;4.05;3.75;;;;;;;7.38;78.64;103395.88;5124117;29;20712;-78
2021/12/18 00:19:28;;;;;;;2.35;2.15;;;;;;;7.39;78.70;103402.88;5108992;28;20048;-78
2021/12/18 00:22:01;;;;;;;1.80;1.70;;;;;;;7.39;78.78;103390.69;5134942;28;20663;-78
2021/12/18 00:24:31;;;;;;;23.75;4.93;;;;;;;7.38;78.57;103393.28;5136817;28;20271;-78
2021/12/18 00:27:02;;;;;;;4.40;3.50;;;;;;;7.42;78.74;103397.72;5126725;28;20426;-78
2021/12/18 00:29:33;;;;;;;1.85;1.75;;;;;;;7.45;78.32;103389.09;5090914;29;20123;-78
2021/12/18 00:32:04;;;;;;;2.85;2.65;;;;;;;7.45;78.56;103390.00;5114110;29;20055;-78
2021/12/18 00:34:34;;;;;;;1.63;1.52;;;;;;;7.39;78.89;103395.06;5129308;28;20747;-77
2021/12/18 00:37:05;;;;;;;5.20;3.60;;;;;;;7.42;78.62;103394.25;5103209;29;20027;-78
2021/12/18 00:39:42;;;;;;;2.42;2.25;;;;;;;7.40;78.78;103397.69;5114014;28;20131;-78
2021/12/18 00:42:24;;;;;;;3.47;2.47;;;;;;;7.41;79.22;103395.97;5087904;29;20036;-78
2021/12/18 00:44:55;;;;;;;2.90;2.70;;;;;;;7.45;79.00;103381.25;5114003;28;20043;-78
2021/12/18 00:47:25;;;;;;;4.18;3.05;;;;;;;7.38;79.23;103381.09;5128975;28;20077;-78
2021/12/18 00:49:56;;;;;;;2.22;2.08;;;;;;;7.35;79.53;103382.72;5112797;28;20047;-77
2021/12/18 00:52:26;;;;;;;4.63;4.15;;;;;;;7.29;79.57;103372.97;5104384;28;20104;-78
2021/12/18 00:54:59;;;;;;;2.05;1.95;;;;;;;7.31;79.25;103378.28;5124185;28;20039;-78
2021/12/18 00:57:29;;;;;;;4.07;3.00;;;;;;;7.34;79.76;103374.03;5112582;29;20682;-78
2021/12/18 01:00:02;;;;;;;4.40;4.00;;;;;;;7.38;79.62;103375.00;5130576;28;20046;-78
2021/12/18 01:02:34;;;;;;;;;;;;;;;7.20;80.47;103381.44;5143441;28;20041;-78
2021/12/18 01:05:10;;;;;;;3.65;3.35;;;;;;;7.30;80.04;103379.09;5125261;28;19918;-78
2021/12/18 01:07:41;;;;;;;3.55;3.35;;;;;;;7.34;79.60;103374.03;5135383;28;20019;-78
2021/12/18 01:13:13;;;;;;;2.50;2.38;;;;;;;7.39;79.54;103382.88;5120769;28;20151;-78
2021/12/18 01:15:50;;;;;;;3.40;3.20;;;;;;;7.44;79.79;103380.38;5131442;28;20055;-78
2021/12/18 01:23:59;;;;;;;4.85;4.45;;;;;;;7.23;80.43;103376.28;5116149;28;20438;-78
2021/12/18 01:26:30;;;;;;;4.25;3.88;;;;;;;7.25;80.30;103374.63;5127130;28;20039;-78
2021/12/18 01:29:00;;;;;;;6.40;4.95;;;;;;;7.39;80.10;103385.47;5134758;28;20024;-78
2021/12/18 01:31:31;;;;;;;10.10;3.78;;;;;;;7.45;79.63;103379.53;5111064;29;20031;-78
2021/12/18 01:34:03;;;;;;;3.53;2.90;;;;;;;7.48;79.63;103379.63;5113609;28;20063;-78
2021/12/18 01:36:34;;;;;;;2.05;1.95;;;;;;;7.35;80.23;103377.50;5116602;28;20032;-78
2021/12/18 01:39:04;;;;;;;2.45;2.10;;;;;;;7.48;79.67;103374.38;5116108;28;20493;-78
2021/12/18 01:41:56;;;;;;;4.10;3.13;;;;;;;7.35;79.58;103369.66;5101749;29;20027;-78
2021/12/18 01:51:16;;;;;;;1.40;1.40;;;;;;;7.42;80.22;103375.97;5129971;28;20035;-78
2021/12/18 01:52:56;;;;;;;;;;;;;;;7.42;80.15;103373.34;5110153;29;20032;-77
2021/12/18 01:55:29;;;;;;;4.45;4.05;;;;;;;7.45;80.03;103363.88;5128523;28;19923;-78
2021/12/18 01:58:00;;;;;;;;;;;;;;;7.34;80.17;103370.50;5128220;28;20027;-78
2021/12/18 02:00:35;;;;;;;3.03;2.83;;;;;;;7.37;80.13;103370.59;5130976;28;20502;-77
2021/12/18 02:03:07;;;;;;;2.50;2.38;;;;;;;7.37;80.78;103370.59;5118170;28;20039;-78
2021/12/18 02:05:38;;;;;;;5.32;4.53;;;;;;;7.43;80.14;103369.91;5108160;28;20043;-78
2021/12/18 02:08:08;;;;;;;2.85;2.70;;;;;;;7.47;80.09;103369.13;5099573;29;20386;-78
2021/12/18 02:10:46;;;;;;;3.10;2.90;;;;;;;7.48;79.98;103363.94;5093561;28;20048;-78
2021/12/18 02:21:18;;;;;;;4.32;4.00;;;;;;;7.52;80.26;103367.56;5122929;28;20430;-77
2021/12/18 02:23:49;;;;;;;4.07;2.83;;;;;;;7.53;80.38;103359.75;5129021;28;20031;-77
2021/12/18 02:26:21;;;;;;;5.68;4.10;;;;;;;7.50;80.30;103367.50;5105359;29;20043;-77
2021/12/18 02:28:54;;;;;;;2.08;1.98;;;;;;;7.44;80.73;103363.84;5099013;28;20422;-77
2021/12/18 02:31:25;;;;;;;3.30;2.40;;;;;;;7.48;80.40;103356.09;5092476;29;20024;-77
2021/12/18 02:33:57;;;;;;;8.15;3.25;;;;;;;7.46;80.83;103359.53;5122566;28;20039;-77
2021/12/18 02:36:27;;;;;;;2.72;2.53;;;;;;;7.49;80.67;103359.63;5114680;29;20028;-77
2021/12/18 02:39:03;;;;;;;4.70;2.63;;;;;;;7.47;80.77;103362.19;5108160;28;20058;-77
2021/12/18 02:44:09;;;;;;;3.50;3.05;;;;;;;7.24;82.49;103359.78;5123371;28;20070;-77
2021/12/18 02:46:40;;;;;;;4.20;3.88;;;;;;;7.30;82.25;103359.09;5109413;29;20067;-77
2021/12/18 02:49:16;;;;;;;5.40;4.53;;;;;;;7.35;81.48;103351.38;5123132;28;20462;-78
2021/12/18 02:51:46;;;;;;;2.13;1.92;;;;;;;7.39;81.42;103355.88;5126342;28;20035;-77
2021/12/18 02:54:17;;;;;;;1.85;1.75;;;;;;;7.42;81.98;103349.84;5132324;28;20101;-77
2021/12/18 02:56:47;;;;;;;2.00;1.90;;;;;;;7.51;81.13;103348.38;5121224;28;20078;-77
2021/12/18 02:59:18;;;;;;;2.28;2.15;;;;;;;7.53;80.84;103351.91;5109802;28;20442;-77
2021/12/18 03:01:49;;;;;;;3.20;2.95;;;;;;;7.39;82.63;103346.28;5121546;28;20804;-77
2021/12/18 03:04:25;;;;;;;2.72;2.53;;;;;;;7.49;81.46;103344.81;5120778;28;21094;-77
2021/12/18 03:07:00;;;;;;;1.90;1.80;;;;;;;7.45;82.21;103337.75;5109389;29;20050;-77
2021/12/18 03:23:32;;;;;;;2.00;1.38;;;;;;;7.45;82.18;103327.31;5129205;28;20031;-77
2021/12/18 03:26:03;;;;;;;1.80;1.70;;;;;;;7.49;81.56;103329.13;5131941;28;20162;-77
2021/12/18 03:28:33;;;;;;;4.38;3.88;;;;;;;7.47;81.75;103328.25;5116555;29;20110;-77
2021/12/18 03:31:04;;;;;;;3.58;3.38;;;;;;;7.49;82.19;103328.28;5097254;28;20052;-77
2021/12/18 03:33:34;;;;;;;3.92;3.53;;;;;;;7.54;82.04;103324.03;5091023;29;20066;-77
2021/12/18 03:36:07;;;;;;;3.38;3.13;;;;;;;7.53;81.73;103324.88;5092281;29;20048;-77
2021/12/18 03:38:37;;;;;;;1.25;1.15;;;;;;;7.49;81.62;103318.69;5123507;29;20035;-78
2021/12/18 03:41:08;;;;;;;2.55;2.35;;;;;;;7.59;81.67;103322.47;5128049;28;20042;-77
2021/12/18 03:43:38;;;;;;;2.05;1.95;;;;;;;7.57;81.35;103322.41;5128232;28;20102;-77
2021/12/18 03:46:09;;;;;;;4.43;2.63;;;;;;;7.64;81.33;103322.59;5130977;28;20114;-76
2021/12/18 03:48:40;;;;;;;1.58;1.50;;;;;;;7.63;81.21;103326.91;5127133;29;20186;-77
2021/12/18 03:51:10;;;;;;;3.40;3.13;;;;;;;7.61;81.49;103318.13;5114799;28;20129;-77
2021/12/18 03:53:41;;;;;;;1.83;1.73;;;;;;;7.62;81.38;103319.03;5111475;29;20055;-77
2021/12/18 03:56:14;;;;;;;3.72;3.50;;;;;;;7.66;81.59;103326.09;5108290;28;20068;-77
2021/12/18 03:58:44;;;;;;;4.32;2.95;;;;;;;7.69;81.31;103323.59;5118647;29;20071;-77
2021/12/18 04:01:15;;;;;;;1.75;1.65;;;;;;;7.64;81.21;103322.59;5134326;28;20078;-77
2021/12/18 04:03:46;;;;;;;4.45;2.80;;;;;;;7.70;81.33;103327.97;5114813;29;20039;-78
2021/12/18 04:06:16;;;;;;;2.13;1.98;;;;;;;7.66;81.27;103326.09;5108461;28;20043;-77
2021/12/18 04:08:47;;;;;;;2.05;1.83;;;;;;;7.64;81.68;103322.59;5097542;29;20059;-78
2021/12/18 04:11:17;;;;;;;3.53;3.30;;;;;;;7.64;81.59;103327.81;5093940;29;20122;-78
2021/12/18 04:13:48;;;;;;;1.65;1.58;;;;;;;7.70;81.21;103330.59;5111272;29;20305;-77
2021/12/18 04:16:18;;;;;;;3.95;2.95;;;;;;;7.69;81.05;103337.53;5107851;28;20036;-78
2021/12/18 04:18:49;;;;;;;2.40;2.28;;;;;;;7.70;81.49;103336.69;5110069;29;20042;-78
2021/12/18 04:21:20;;;;;;;1.95;1.85;;;;;;;7.70;81.27;103336.69;5125622;28;20126;-77
2021/12/18 04:23:50;;;;;;;2.13;1.95;;;;;;;7.74;81.13;103335.03;5111483;28;20039;-77
2021/12/18 04:26:21;;;;;;;4.22;3.55;;;;;;;7.76;80.76;103335.97;5113810;29;20043;-77
2021/12/18 04:28:51;;;;;;;2.78;2.58;;;;;;;7.77;81.44;103340.34;5109036;28;20067;-78
2021/12/18 04:31:22;;;;;;;1.88;1.58;;;;;;;7.70;81.49;103341.03;5129638;28;20031;-77
2021/12/18 04:33:53;;;;;;;2.17;2.08;;;;;;;7.72;81.33;103341.97;5134287;28;20028;-77
2021/12/18 04:36:24;;;;;;;1.67;1.58;;;;;;;7.76;81.23;103343.81;5115659;29;20020;-79
2021/12/18 04:38:55;;;;;;;7.57;2.83;;;;;;;7.75;81.28;103342.03;5109394;28;20038;-78
2021/12/18 04:41:38;;;;;;;2.00;1.88;;;;;;;7.82;80.97;103346.56;5127889;28;20110;-78
2021/12/18 04:44:09;;;;;;;;;;;;;;;7.77;81.41;103339.47;5098751;28;20028;-77
2021/12/18 04:46:39;;;;;;;1.95;1.52;;;;;;;7.72;81.30;103341.97;5117416;29;19910;-77
2021/12/18 04:49:10;;;;;;;1.08;1.08;;;;;;;7.69;81.52;103340.13;5107365;28;20055;-78
2021/12/18 04:51:41;;;;;;;0.80;0.80;;;;;;;7.68;81.68;103345.31;5131377;28;20587;-77
2021/12/18 04:54:12;;;;;;;3.97;2.95;;;;;;;7.79;81.09;103343.91;5093242;28;20047;-77
2021/12/18 04:56:42;;;;;;;1.48;1.38;;;;;;;7.69;81.50;103342.75;5129669;28;20026;-77
2021/12/18 04:59:13;;;;;;;2.97;2.78;;;;;;;7.75;81.37;103339.41;5123225;28;20067;-77
2021/12/18 05:01:44;;;;;;;2.42;1.92;;;;;;;7.76;81.21;103348.16;5126597;28;20132;-77
2021/12/18 05:04:14;;;;;;;3.47;2.15;;;;;;;7.75;81.36;103352.50;5130480;28;20057;-77
2021/12/18 05:06:47;;;;;;;2.47;2.30;;;;;;;7.74;81.33;103350.72;5109185;29;20066;-77
2021/12/18 05:09:18;;;;;;;2.47;2.37;;;;;;;7.72;81.18;103349.81;5123999;28;20043;-77
2021/12/18 05:11:50;;;;;;;5.07;4.03;;;;;;;7.71;81.40;103345.44;5106488;29;20686;-77
2021/12/18 05:14:22;;;;;;;3.20;2.35;;;;;;;7.72;81.73;103348.06;5102351;28;20066;-77
2021/12/18 05:16:52;;;;;;;2.83;1.88;;;;;;;7.72;81.40;103349.81;5113187;29;20042;-77
2021/12/18 05:19:23;;;;;;;2.00;1.90;;;;;;;7.75;81.29;103347.25;5111099;28;20040;-77
2021/12/18 05:21:56;;;;;;;2.20;2.03;;;;;;;7.75;81.72;103339.41;5128724;28;20071;-77
2021/12/18 05:24:26;;;;;;;1.73;1.63;;;;;;;7.76;81.67;103349.03;5116861;28;20122;-77
2021/12/18 05:26:57;;;;;;;2.65;2.45;;;;;;;7.80;81.31;103345.69;5116073;29;20118;-77
2021/12/18 05:29:28;;;;;;;4.18;2.25;;;;;;;7.78;81.36;103352.59;5127308;28;20047;-77
2021/12/18 05:31:58;;;;;;;1.13;1.10;;;;;;;7.83;80.97;103343.13;5117936;29;20027;-77
2021/12/18 05:34:36;;;;;;;1.98;1.23;;;;;;;7.76;81.54;103341.19;5127768;28;20043;-77
2021/12/18 05:39:47;;;;;;;2.63;2.42;;;;;;;7.77;81.66;103345.59;5126368;28;20075;-77
2021/12/18 05:42:18;;;;;;;2.33;2.15;;;;;;;7.76;81.68;103343.81;5142976;28;20031;-77
2021/12/18 05:44:48;;;;;;;3.50;2.63;;;;;;;7.81;81.39;103346.53;5086754;29;20036;-76
2021/12/18 05:47:19;;;;;;;2.25;1.48;;;;;;;7.79;81.79;103341.28;5125495;28;20070;-77
2021/12/18 05:49:50;;;;;;;2.25;2.10;;;;;;;7.79;81.14;103340.38;5108536;28;20086;-77
2021/12/18 05:52:22;;;;;;;8.32;2.45;;;;;;;7.78;81.20;103342.13;5127870;28;20099;-77
2021/12/18 05:54:53;;;;;;;2.10;2.00;;;;;;;7.83;81.40;103353.56;5123895;28;20048;-77
2021/12/18 05:57:23;;;;;;;6.35;2.58;;;;;;;7.80;81.61;103353.53;5131121;28;20433;-77
2021/12/18 05:59:54;;;;;;;1.90;1.75;;;;;;;7.84;81.61;103351.88;5091609;29;20074;-77
2021/12/18 06:02:24;;;;;;;1.15;1.15;;;;;;;7.88;81.31;103361.53;5132825;28;20035;-78
2021/12/18 06:04:57;;;;;;;1.40;1.33;;;;;;;7.84;81.11;103364.94;5125154;28;20107;-77
2021/12/18 06:10:34;;;;;;;1.17;1.17;;;;;;;7.83;81.33;103357.94;5060969;29;20044;-77
2021/12/18 06:13:05;;;;;;;2.33;2.15;;;;;;;7.88;81.29;103358.94;5100315;29;20048;-77
2021/12/18 06:15:36;;;;;;;2.13;2.03;;;;;;;7.82;81.53;103364.00;5126139;28;20044;-77
2021/12/18 06:18:07;;;;;;;2.88;2.63;;;;;;;7.82;81.34;103359.66;5131516;28;20028;-77
2021/12/18 06:20:38;;;;;;;1.00;1.00;;;;;;;7.88;81.19;103357.22;5108601;29;20043;-77
2021/12/18 06:23:08;;;;;;;13.07;1.88;;;;;;;7.92;81.36;103350.34;5105049;29;20035;-77
2021/12/18 06:25:39;;;;;;;2.38;2.22;;;;;;;7.91;80.99;103347.66;5121448;28;20714;-77
2021/12/18 06:28:10;;;;;;;2.10;2.00;;;;;;;7.88;81.42;103351.09;5123215;28;20027;-77
2021/12/18 06:30:40;;;;;;;2.17;2.08;;;;;;;7.88;81.18;103351.09;5126925;28;20048;-77
2021/12/18 06:33:10;;;;;;;5.57;2.30;;;;;;;7.88;81.36;103359.84;5123571;28;20123;-78
2021/12/18 06:35:41;;;;;;;3.60;2.85;;;;;;;7.90;81.44;103361.56;5124650;28;20572;-76
2021/12/18 06:38:12;;;;;;;2.40;2.25;;;;;;;7.94;80.92;103358.22;5108783;29;20027;-77
2021/12/18 06:40:42;;;;;;;3.58;2.03;;;;;;;7.96;80.89;103361.75;5123936;28;20078;-76
2021/12/18 06:43:13;;;;;;;3.83;3.50;;;;;;;8.00;80.94;103358.38;5125595;28;20027;-76
2021/12/18 06:45:44;;;;;;;1.92;1.83;;;;;;;8.00;80.68;103359.28;5107618;28;20140;-76
2021/12/18 06:48:14;;;;;;;1.73;1.55;;;;;;;7.98;81.26;103358.34;5130430;28;20086;-78
2021/12/18 06:50:45;;;;;;;1.27;1.27;;;;;;;7.92;81.38;103362.50;5130975;28;20616;-77
2021/12/18 06:53:16;;;;;;;2.80;2.47;;;;;;;7.93;81.25;103359.06;5133047;28;20063;-79
2021/12/18 06:55:46;;;;;;;2.47;2.35;;;;;;;7.97;80.97;103363.53;5123237;28;20561;-79
2021/12/18 06:58:17;;;;;;;1.92;1.77;;;;;;;7.97;81.10;103355.69;5123816;28;20034;-77
2021/12/18 07:00:48;;;;;;;3.45;3.15;;;;;;;7.98;81.06;103360.03;5106432;28;20055;-77
2021/12/18 07:03:19;;;;;;;2.92;2.67;;;;;;;7.96;80.86;103353.91;5092230;29;20122;-78
2021/12/18 07:05:50;;;;;;;3.20;2.45;;;;;;;7.99;81.27;103356.59;5129570;28;20054;-78
2021/12/18 07:08:20;;;;;;;3.35;3.05;;;;;;;8.02;80.88;103364.53;5110405;29;20303;-78
2021/12/18 07:10:51;;;;;;;5.25;4.75;;;;;;;7.95;81.03;103362.59;5104595;28;20051;-78
2021/12/18 07:13:22;;;;;;;3.70;2.88;;;;;;;7.95;81.26;103353.00;5127754;28;20122;-78
2021/12/18 07:15:53;;;;;;;2.88;2.60;;;;;;;7.99;81.08;103357.50;5120930;28;20541;-78
2021/12/18 07:18:26;;;;;;;3.70;3.38;;;;;;;7.97;80.72;103359.19;5128546;28;20074;-77
2021/12/18 07:20:57;;;;;;;3.20;3.00;;;;;;;7.94;81.29;103366.06;5103704;28;20039;-78
2021/12/18 07:23:28;;;;;;;1.77;1.67;;;;;;;7.94;80.92;103368.66;5117836;28;20592;-78
2021/12/18 07:25:58;;;;;;;3.15;2.92;;;;;;;7.94;81.30;103366.94;5106579;28;20063;-78
2021/12/18 07:28:29;;;;;;;6.10;3.17;;;;;;;7.96;81.17;103372.22;5120327;28;20059;-78
2021/12/18 07:30:59;;;;;;;3.72;3.40;;;;;;;8.00;81.47;103376.66;5105439;29;20741;-78
2021/12/18 07:33:30;;;;;;;2.50;2.22;;;;;;;7.95;81.42;103370.44;5124557;28;20438;-78
2021/12/18 07:36:01;;;;;;;4.13;3.80;;;;;;;7.99;81.04;103369.66;5139410;28;20019;-77
2021/12/18 07:38:31;;;;;;;1.75;1.65;;;;;;;7.95;81.02;103371.31;5120079;28;20044;-77
2021/12/18 07:41:02;;;;;;;3.78;3.58;;;;;;;7.97;81.17;103371.38;5104761;28;20128;-78
2021/12/18 07:43:33;;;;;;;7.07;3.67;;;;;;;7.93;80.81;103372.13;5107850;29;20043;-77
2021/12/18 07:46:04;;;;;;;8.50;3.20;;;;;;;7.93;81.38;103366.91;5075403;29;20043;-76
2021/12/18 07:48:34;;;;;;;2.97;2.67;;;;;;;7.88;81.43;103364.16;5116114;29;20042;-79
2021/12/18 07:51:08;;;;;;;5.38;4.90;;;;;;;7.89;81.89;103365.94;5087083;29;21042;-76
2021/12/18 07:53:38;;;;;;;2.17;1.95;;;;;;;7.88;81.61;103364.16;5106082;29;20527;-76
2021/12/18 07:56:12;;;;;;;4.50;3.88;;;;;;;7.93;81.31;103373.03;5114687;28;20043;-77
2021/12/18 07:58:42;;;;;;;;;;;;;;;7.94;81.22;103363.44;5103645;28;20115;-77
2021/12/18 08:01:13;;;;;;;11.10;4.57;;;;;;;7.83;81.68;103366.66;5113326;29;19914;-76
2021/12/18 08:03:44;;;;;;;2.83;2.60;;;;;;;7.87;81.65;103368.53;5112576;29;20103;-76
2021/12/18 08:06:22;;;;;;;3.15;2.65;;;;;;;7.84;81.63;103363.19;5136671;28;20078;-77
2021/12/18 08:08:58;;;;;;;5.18;3.95;;;;;;;7.81;81.80;103357.88;5129378;28;20062;-77
2021/12/18 08:11:31;;;;;;;3.05;2.85;;;;;;;7.86;81.70;103363.22;5129885;28;20493;-78
2021/12/18 08:14:04;;;;;;;2.28;2.15;;;;;;;7.89;81.76;103360.72;5103275;28;20038;-77
2021/12/18 08:16:34;;;;;;;3.03;2.83;;;;;;;7.72;82.58;103355.03;5127626;28;20032;-77
2021/12/18 08:19:05;;;;;;;6.13;3.80;;;;;;;7.74;82.51;103357.69;5116045;28;20039;-79
2021/12/18 08:21:36;;;;;;;2.47;2.28;;;;;;;7.70;82.63;103354.97;5130840;28;20035;-78
2021/12/18 08:24:06;;;;;;;3.63;3.35;;;;;;;7.84;81.78;103363.19;5128854;28;20042;-78
2021/12/18 08:26:39;;;;;;;6.25;3.85;;;;;;;7.78;81.88;103365.66;5130704;28;20028;-78
2021/12/18 08:29:10;;;;;;;1.65;1.55;;;;;;;7.84;81.74;103365.81;5120956;28;20052;-76
2021/12/18 08:31:40;;;;;;;6.97;6.13;;;;;;;7.74;81.85;103366.41;5124457;28;20708;-76
2021/12/18 08:34:13;;;;;;;4.57;4.18;;;;;;;7.81;81.82;103370.06;5121370;28;20043;-77
2021/12/18 08:36:44;;;;;;;3.67;3.47;;;;;;;7.79;81.87;103364.81;5093299;29;20024;-79
2021/12/18 08:39:23;;;;;;;3.45;3.17;;;;;;;7.75;81.77;103356.84;5109457;28;20064;-80
2021/12/18 08:41:59;;;;;;;2.25;1.95;;;;;;;7.79;81.59;103370.03;5109786;29;20035;-79
2021/12/18 08:44:29;;;;;;;4.20;3.88;;;;;;;7.84;81.59;103365.81;5112213;28;20119;-78
2021/12/18 08:47:16;;;;;;;4.80;3.25;;;;;;;7.80;81.80;103363.97;5113083;29;20027;-79
2021/12/18 08:50:10;;;;;;;3.42;2.90;;;;;;;7.78;81.75;103362.13;5105033;28;20471;-81
2021/12/18 08:52:55;;;;;;;3.10;2.90;;;;;;;7.74;81.62;103362.91;5100157;29;20031;-79
2021/12/18 08:55:34;;;;;;;3.35;3.13;;;;;;;7.83;81.83;103363.16;5111856;28;20098;-81
2021/12/18 09:01:32;;;;;;;8.48;5.50;;;;;;;7.82;81.92;103364.88;5061630;29;20036;-80
2021/12/18 09:04:10;;;;;;;;;;;;;;;7.85;81.51;103366.72;5126344;28;20043;-79
2021/12/18 09:06:51;;;;;;;3.97;3.67;;;;;;;7.71;81.91;103361.97;5096179;29;19949;-78
2021/12/18 09:09:24;;;;;;;2.90;2.78;;;;;;;7.76;81.63;103363.84;5135045;28;20040;-79
2021/12/18 09:11:54;;;;;;;4.13;3.72;;;;;;;7.75;82.10;103359.47;5083929;29;20036;-77
2021/12/18 09:14:33;;;;;;;5.85;4.03;;;;;;;7.76;82.28;103363.84;5124045;28;20104;-78
2021/12/18 09:17:11;;;;;;;5.13;3.92;;;;;;;7.68;82.07;103361.00;5114367;29;20081;-79
2021/12/18 09:19:41;;;;;;;12.32;4.88;;;;;;;7.68;82.29;103368.84;5107859;28;20054;-78
2021/12/18 09:22:12;;;;;;;8.30;5.88;;;;;;;7.73;81.89;103359.41;5091231;29;20509;-77
2021/12/18 09:24:43;;;;;;;4.45;3.97;;;;;;;7.71;82.15;103361.09;5094852;28;20040;-78
2021/12/18 09:27:17;;;;;;;3.22;2.97;;;;;;;7.74;81.67;103358.56;5128427;28;20583;-78
2021/12/18 09:29:50;;;;;;;3.33;3.03;;;;;;;7.78;81.88;103363.03;5126410;28;20039;-78
2021/12/18 09:32:23;;;;;;;3.38;2.72;;;;;;;7.65;82.26;103360.91;5138424;28;20054;-78
2021/12/18 09:34:53;;;;;;;3.20;2.90;;;;;;;7.67;82.58;103365.38;5131701;28;20050;-78
2021/12/18 09:37:24;;;;;;;4.78;3.75;;;;;;;7.75;82.16;103360.34;5121389;28;20035;-78
2021/12/18 09:39:54;;;;;;;6.05;3.40;;;;;;;7.71;81.96;103361.09;5110366;28;20070;-78
2021/12/18 09:42:25;;;;;;;2.28;2.17;;;;;;;7.70;82.08;103359.34;5118204;28;20062;-78
2021/12/18 09:44:55;;;;;;;4.18;2.03;;;;;;;7.77;82.05;103365.63;5101589;28;20048;-78
2021/12/18 09:47:26;;;;;;;3.00;2.80;;;;;;;7.75;81.73;103362.06;5102829;29;20043;-78
2021/12/18 09:49:58;;;;;;;3.03;2.60;;;;;;;7.78;82.13;103360.41;5123659;28;20046;-78
2021/12/18 09:52:31;;;;;;;5.97;3.55;;;;;;;7.74;82.11;103370.75;5109204;29;20099;-77
2021/12/18 09:55:07;;;;;;;5.97;3.22;;;;;;;7.81;81.92;103362.22;5114706;28;20088;-78
2021/12/18 09:57:40;;;;;;;2.75;2.55;;;;;;;7.80;82.09;103363.97;5107635;28;20036;-78
2021/12/18 10:00:15;;;;;;;3.28;2.97;;;;;;;7.77;82.21;103361.25;5112581;29;20043;-81
2021/12/18 10:02:50;;;;;;;2.75;2.65;;;;;;;7.81;81.76;103362.22;5093695;29;20023;-78
2021/12/18 10:05:28;;;;;;;2.83;2.63;;;;;;;7.78;82.19;103357.81;5123082;28;20036;-78
2021/12/18 10:08:14;;;;;;;3.45;3.17;;;;;;;7.81;81.94;103359.63;5129039;28;20059;-78
2021/12/18 10:11:07;;;;;;;3.45;2.90;;;;;;;7.95;81.70;103357.38;5100114;28;20158;-78
2021/12/18 10:13:56;;;;;;;2.08;1.95;;;;;;;7.94;81.59;103350.38;5122916;28;20061;-78
2021/12/18 10:16:29;;;;;;;1.65;1.58;;;;;;;7.86;82.02;103348.44;5107795;29;20138;-79
2021/12/18 10:19:00;;;;;;;3.75;3.45;;;;;;;7.78;82.03;103343.84;5121718;28;20413;-77
2021/12/18 10:21:30;;;;;;;3.40;3.10;;;;;;;7.91;82.11;103347.66;5108778;29;20159;-78
2021/12/18 10:24:14;;;;;;;1.13;1.13;;;;;;;7.89;82.14;103337.19;5088467;28;20486;-77
2021/12/18 10:26:45;;;;;;;1.38;1.38;;;;;;;7.85;81.94;103341.44;5126857;28;20046;-77
2021/12/18 10:29:35;;;;;;;2.72;2.28;;;;;;;7.86;82.10;103343.22;5109251;28;20046;-78
2021/12/18 10:32:15;;;;;;;2.53;1.95;;;;;;;7.82;82.32;103332.63;5125793;28;20090;-78
2021/12/18 10:34:52;;;;;;;3.92;3.63;;;;;;;7.85;82.01;103336.22;5121680;28;20127;-78
2021/12/18 10:37:27;;;;;;;2.00;1.88;;;;;;;7.76;82.50;103342.94;5120367;28;20034;-77
2021/12/18 10:40:07;;;;;;;3.55;2.58;;;;;;;7.69;82.72;103328.81;5094674;28;20179;-78
2021/12/18 10:42:45;;;;;;;2.65;2.45;;;;;;;7.76;82.52;103322.03;5120942;28;20441;-79
2021/12/18 10:45:20;;;;;;;3.83;3.55;;;;;;;7.83;82.55;103326.56;5111193;28;20206;-77
2021/12/18 10:47:56;;;;;;;4.90;4.35;;;;;;;7.87;82.24;103318.84;5126085;28;20043;-77
2021/12/18 10:50:29;;;;;;;;;;;;;;;7.88;82.16;103319.72;5129750;28;20137;-77
2021/12/18 10:53:03;;;;;;;2.90;2.70;;;;;;;7.94;82.18;103326.84;5132699;28;20451;-76
2021/12/18 10:55:46;;;;;;;2.00;1.90;;;;;;;7.88;82.20;103311.88;5124538;28;20086;-77
2021/12/18 10:58:27;;;;;;;2.65;2.20;;;;;;;7.82;82.45;103317.81;5132313;28;20038;-78
2021/12/18 11:01:10;;;;;;;7.53;3.50;;;;;;;7.94;82.04;103324.22;5117163;28;20081;-78
2021/12/18 11:03:43;;;;;;;2.83;2.58;;;;;;;7.92;82.16;103318.06;5129602;28;20036;-77
2021/12/18 11:06:27;;;;;;;;;;;;;;;7.93;82.20;103314.63;5128216;28;20047;-78
2021/12/18 11:09:09;;;;;;;2.45;2.22;;;;;;;7.96;81.87;103301.63;5122818;28;20305;-79
2021/12/18 11:14:20;;;;;;;1.33;1.30;;;;;;;8.00;81.78;103298.22;5128154;28;20596;-77
2021/12/18 11:17:03;;;;;;;4.90;3.38;;;;;;;7.93;82.26;103298.94;5122926;28;20038;-77
2021/12/18 11:19:35;;;;;;;13.23;4.68;;;;;;;7.95;82.42;103299.84;5110029;28;20043;-80
2021/12/18 11:22:11;;;;;;;2.15;2.00;;;;;;;8.04;82.22;103295.72;5122583;28;20042;-78
2021/12/18 11:24:43;;;;;;;3.45;3.20;;;;;;;8.01;82.05;103292.16;5127765;28;20043;-80
2021/12/18 11:27:20;;;;;;;3.25;2.47;;;;;;;8.05;81.79;103294.03;5120667;28;20107;-79
2021/12/18 11:29:59;;;;;;;4.28;3.95;;;;;;;8.01;82.27;103282.59;5134425;28;20027;-76
2021/12/18 11:32:36;;;;;;;3.70;2.42;;;;;;;7.87;82.63;103286.56;5119151;28;20040;-77
2021/12/18 11:35:11;;;;;;;6.60;3.50;;;;;;;7.97;82.80;103274.66;5123594;28;20162;-77
2021/12/18 11:38:01;;;;;;;3.90;2.53;;;;;;;8.12;82.18;103275.00;5127408;28;20027;-77
2021/12/18 11:40:36;;;;;;;3.15;2.42;;;;;;;7.96;84.04;103278.09;5070625;29;20042;-78
2021/12/18 11:43:13;;;;;;;5.65;3.15;;;;;;;8.05;82.42;103270.50;5125537;28;20766;-78
2021/12/18 11:45:44;;;;;;;4.72;3.10;;;;;;;8.02;82.69;103267.78;5103259;28;20058;-79
2021/12/18 11:48:15;;;;;;;2.45;2.13;;;;;;;8.00;82.26;103269.47;5116176;28;20102;-78
2021/12/18 11:50:47;;;;;;;5.50;2.65;;;;;;;7.77;83.17;103267.16;5129963;28;20047;-77
2021/12/18 11:53:20;;;;;;;2.67;2.47;;;;;;;7.83;83.17;103269.94;5094156;29;20344;-80
2021/12/18 11:55:50;;;;;;;2.42;2.28;;;;;;;7.86;82.97;103275.25;5093721;28;20067;-80
2021/12/18 11:58:24;;;;;;;5.38;2.92;;;;;;;7.91;82.88;103275.38;5126803;28;20027;-79
2021/12/18 12:01:14;;;;;;;4.03;3.65;;;;;;;7.93;82.73;103265.84;5112817;28;20047;-80
2021/12/18 12:04:06;;;;;;;2.38;2.17;;;;;;;7.95;82.44;103271.97;5115878;29;20054;-81
2021/12/18 12:06:42;;;;;;;5.07;4.60;;;;;;;7.99;82.43;103265.09;5084003;29;20717;-80
2021/12/18 12:12:50;;;;;;;4.63;4.22;;;;;;;8.04;82.54;103264.34;5087131;28;20040;-81
2021/12/18 12:15:24;;;;;;;3.63;2.95;;;;;;;8.06;82.45;103261.75;5119631;28;20050;-81
2021/12/18 12:18:00;;;;;;;3.13;2.58;;;;;;;8.02;82.75;103270.41;5121482;28;20047;-81
2021/12/18 12:20:51;;;;;;;3.20;2.53;;;;;;;8.05;82.55;103267.88;5112113;29;20131;-80
2021/12/18 12:23:21;;;;;;;5.13;4.63;;;;;;;8.14;82.48;103254.13;5113681;28;20089;-81
2021/12/18 12:25:53;;;;;;;2.22;1.90;;;;;;;8.08;82.74;103246.13;5093963;29;20559;-81
2021/12/18 12:28:26;;;;;;;10.73;3.13;;;;;;;8.08;82.53;103253.97;5089785;29;20028;-83
2021/12/18 12:31:03;;;;;;;;;;;;;;;8.15;82.33;103254.16;5128656;28;20043;-80
2021/12/18 12:33:36;;;;;;;3.63;3.30;;;;;;;8.11;82.73;103252.31;5110991;29;19926;-80
2021/12/18 12:36:22;;;;;;;1.92;1.83;;;;;;;8.09;82.45;103242.69;5112456;29;20425;-81
2021/12/18 12:38:59;;;;;;;2.20;2.00;;;;;;;8.07;82.70;103241.75;5122318;28;20090;-79
2021/12/18 12:41:33;;;;;;;1.98;1.88;;;;;;;8.02;82.81;103239.91;5106220;28;20114;-81
2021/12/18 12:44:22;;;;;;;1.42;1.33;;;;;;;8.18;82.53;103235.06;5121948;28;20111;-81
2021/12/18 12:47:30;;;;;;;4.30;3.40;;;;;;;7.99;82.85;103228.47;5120556;29;20120;-83
2021/12/18 12:50:13;;;;;;;4.22;3.75;;;;;;;8.07;82.48;103232.16;5107622;29;20103;-82
2021/12/18 12:52:51;;;;;;;4.22;2.67;;;;;;;8.08;82.46;103231.31;5131687;28;20023;-82
2021/12/18 12:55:24;;;;;;;1.63;1.52;;;;;;;7.98;83.11;103225.00;5145345;28;20035;-80
2021/12/18 12:58:01;;;;;;;2.88;2.00;;;;;;;8.12;82.84;103227.94;5128422;28;20136;-80